createdAt,value
2023-05-14T00:02:21.378Z,92.20
2023-05-14T00:04:49.705Z,91.94
2023-05-14T00:07:19.164Z,91.85
2023-05-14T00:09:47.363Z,91.65
2023-05-14T00:12:15.595Z,92.20
2023-05-14T00:14:43.822Z,92.85
2023-05-14T00:17:11.969Z,93.39
2023-05-14T00:19:41.883Z,94.27
2023-05-14T00:22:10.103Z,93.86
2023-05-14T00:24:39.651Z,93.51
2023-05-14T00:27:07.969Z,93.22
2023-05-14T00:29:36.117Z,93.57
2023-05-14T00:32:04.704Z,93.42
2023-05-14T00:34:33.182Z,93.12
2023-05-14T00:37:01.489Z,93.56
2023-05-14T00:39:29.639Z,94.07
2023-05-14T00:41:59.222Z,94.48
2023-05-14T00:44:27.520Z,94.74
2023-05-14T00:46:55.973Z,94.90
2023-05-14T00:49:24.528Z,95.34
2023-05-14T00:51:53.298Z,96.07
2023-05-14T00:54:22.236Z,96.21
2023-05-14T00:56:50.444Z,96.00
2023-05-14T00:59:19.936Z,95.98
2023-05-14T01:01:48.250Z,95.55
2023-05-14T01:04:16.852Z,95.73
2023-05-14T01:06:55.713Z,95.99
2023-05-14T01:09:27.953Z,96.75
2023-05-14T01:12:01.792Z,98.62
2023-05-14T01:14:37.530Z,99.17
2023-05-14T01:17:06.235Z,99.03
2023-05-14T01:19:40.643Z,98.90
2023-05-14T01:22:10.616Z,98.37
2023-05-14T01:24:38.922Z,97.73
2023-05-14T01:27:11.523Z,97.83
2023-05-14T01:29:44.333Z,98.39
2023-05-14T01:32:14.412Z,98.55
2023-05-14T01:34:44.075Z,97.87
2023-05-14T01:37:14.706Z,97.80
2023-05-14T01:39:43.661Z,97.06
2023-05-14T01:42:12.033Z,96.43
2023-05-14T01:44:40.656Z,96.33
2023-05-14T01:47:08.803Z,96.14
2023-05-14T01:49:37.617Z,96.17
2023-05-14T01:52:06.432Z,96.96
2023-05-14T01:54:35.960Z,96.67
2023-05-14T01:57:04.647Z,96.33
2023-05-14T01:59:32.880Z,96.21
2023-05-14T02:02:01.105Z,96.29
2023-05-14T02:04:29.699Z,96.45
2023-05-14T02:06:58.111Z,97.14
2023-05-14T02:09:26.358Z,97.17
2023-05-14T02:11:56.175Z,96.99
2023-05-14T02:14:24.370Z,96.72
2023-05-14T02:16:52.527Z,97.20
2023-05-14T02:19:20.715Z,96.56
2023-05-14T02:21:50.279Z,96.29
2023-05-14T02:24:18.485Z,95.51
2023-05-14T02:26:46.640Z,95.47
2023-05-14T02:29:16.159Z,95.12
2023-05-14T02:31:44.487Z,94.85
2023-05-14T02:34:12.732Z,95.06
2023-05-14T02:36:41.096Z,95.68
2023-05-14T02:39:09.256Z,95.38
2023-05-14T02:41:37.459Z,95.33
2023-05-14T02:44:06.108Z,95.76
2023-05-14T02:46:36.325Z,96.26
2023-05-14T02:49:04.507Z,97.01
2023-05-14T02:51:32.775Z,96.89
2023-05-14T02:54:01.016Z,97.02
2023-05-14T02:56:29.157Z,96.67
2023-05-14T02:58:57.298Z,96.26
2023-05-14T03:01:25.880Z,96.08
2023-05-14T03:03:55.967Z,96.51
2023-05-14T03:06:24.129Z,96.56
2023-05-14T03:08:52.280Z,96.89
2023-05-14T03:11:20.681Z,96.87
2023-05-14T03:13:48.850Z,97.05
2023-05-14T03:16:17.076Z,97.15
2023-05-14T03:18:45.582Z,98.09
2023-05-14T03:21:15.563Z,98.76
2023-05-14T03:23:44.772Z,98.88
2023-05-14T03:26:12.892Z,98.69
2023-05-14T03:28:41.194Z,98.80
2023-05-14T03:31:09.456Z,99.18
2023-05-14T03:33:38.582Z,99.10
2023-05-14T03:36:07.260Z,98.95
2023-05-14T03:38:36.857Z,99.17
2023-05-14T03:41:05.151Z,99.71
2023-05-14T03:43:33.314Z,99.42
2023-05-14T03:46:01.461Z,99.04
2023-05-14T03:48:29.919Z,98.95
2023-05-14T03:50:58.171Z,98.60
2023-05-14T03:53:26.339Z,98.45
2023-05-14T03:55:55.913Z,97.60
2023-05-14T03:58:24.175Z,96.70
2023-05-14T04:00:52.918Z,97.30
2023-05-14T04:03:21.209Z,96.83
2023-05-14T04:05:49.526Z,95.75
2023-05-14T04:08:17.687Z,93.42
2023-05-14T04:10:46.276Z,90.68
2023-05-14T04:13:15.798Z,89.95
2023-05-14T04:15:44.851Z,89.91
2023-05-14T04:18:13.053Z,89.74
2023-05-14T04:20:41.513Z,89.65
2023-05-14T04:23:10.142Z,89.09
2023-05-14T04:25:38.328Z,88.95
2023-05-14T04:28:06.781Z,88.61
2023-05-14T04:30:36.294Z,89.27
2023-05-14T04:33:04.933Z,87.04
2023-05-14T04:35:33.084Z,86.97
2023-05-14T04:38:01.314Z,87.21
2023-05-14T04:40:31.097Z,87.28
2023-05-14T04:42:59.443Z,88.25
2023-05-14T04:45:27.619Z,86.90
2023-05-14T04:47:57.129Z,85.33
2023-05-14T04:50:25.824Z,83.55
2023-05-14T04:52:55.785Z,84.54
2023-05-14T04:55:24.207Z,83.48
2023-05-14T04:57:52.430Z,82.29
2023-05-14T05:00:22.026Z,81.92
2023-05-14T05:02:50.709Z,82.17
2023-05-14T05:05:20.689Z,82.69
2023-05-14T05:07:48.995Z,82.86
2023-05-14T05:10:17.165Z,81.63
2023-05-14T05:12:45.346Z,81.70
2023-05-14T05:15:13.571Z,81.92
2023-05-14T05:17:41.945Z,80.54
2023-05-14T05:20:10.904Z,80.04
2023-05-14T05:22:40.636Z,80.63
2023-05-14T05:25:09.403Z,79.60
2023-05-14T05:27:37.537Z,78.27
2023-05-14T05:30:07.332Z,77.60
2023-05-14T05:32:36.142Z,76.64
2023-05-14T05:35:04.964Z,76.30
2023-05-14T05:37:33.127Z,75.91
2023-05-14T05:40:02.715Z,75.83
2023-05-14T05:42:30.946Z,75.36
2023-05-14T05:44:59.130Z,73.98
2023-05-14T05:47:27.326Z,73.54
2023-05-14T05:49:55.506Z,73.70
2023-05-14T05:52:24.182Z,73.76
2023-05-14T05:54:52.481Z,73.32
2023-05-14T05:57:25.663Z,72.68
2023-05-14T05:59:54.541Z,73.62
2023-05-14T06:02:22.923Z,72.84
2023-05-14T06:04:51.209Z,73.08
2023-05-14T06:07:19.407Z,72.34
2023-05-14T06:09:47.869Z,71.13
2023-05-14T06:12:16.143Z,70.73
2023-05-14T06:14:45.674Z,71.62
2023-05-14T06:17:13.847Z,72.06
2023-05-14T06:19:42.043Z,71.85
2023-05-14T06:22:10.318Z,71.94
2023-05-14T06:24:38.500Z,71.81
2023-05-14T06:27:07.087Z,73.15
2023-05-14T06:29:35.239Z,72.70
2023-05-14T06:32:05.652Z,72.63
2023-05-14T06:34:34.216Z,72.07
2023-05-14T06:37:04.142Z,71.75
2023-05-14T06:39:32.398Z,71.84
2023-05-14T06:42:00.659Z,72.16
2023-05-14T06:44:28.873Z,71.65
2023-05-14T06:46:57.151Z,71.79
2023-05-14T06:49:26.625Z,73.12
2023-05-14T06:51:54.794Z,71.78
2023-05-14T06:54:23.163Z,71.17
2023-05-14T06:56:51.282Z,68.88
2023-05-14T06:59:19.499Z,67.84
2023-05-14T07:01:47.761Z,68.37
2023-05-14T07:04:16.001Z,68.18
2023-05-14T07:06:46.029Z,67.23
2023-05-14T07:09:14.399Z,67.87
2023-05-14T07:11:42.528Z,67.27
2023-05-14T07:14:10.699Z,67.26
2023-05-14T07:16:38.899Z,68.95
2023-05-14T07:19:07.216Z,67.33
2023-05-14T07:21:36.136Z,68.15
2023-05-14T07:24:06.782Z,67.21
2023-05-14T07:26:35.215Z,67.02
2023-05-14T07:29:03.444Z,67.91
2023-05-14T07:31:31.655Z,67.17
2023-05-14T07:34:00.005Z,67.59
2023-05-14T07:36:28.375Z,67.20
2023-05-14T07:38:56.601Z,66.82
2023-05-14T07:41:26.104Z,67.60
2023-05-14T07:43:54.298Z,67.08
2023-05-14T07:46:23.856Z,68.11
2023-05-14T07:48:52.000Z,66.28
2023-05-14T07:51:20.168Z,66.66
2023-05-14T07:53:48.358Z,65.30
2023-05-14T07:56:16.865Z,66.01
2023-05-14T07:58:46.368Z,66.16
2023-05-14T08:01:14.640Z,64.87
2023-05-14T08:03:42.900Z,65.32
2023-05-14T08:06:11.210Z,65.80
2023-05-14T08:08:39.402Z,64.83
2023-05-14T08:11:07.665Z,63.70
2023-05-14T08:13:36.160Z,63.10
2023-05-14T08:16:06.304Z,63.17
2023-05-14T08:18:34.596Z,61.74
2023-05-14T08:21:03.796Z,61.14
2023-05-14T08:23:32.167Z,60.85
2023-05-14T08:26:00.414Z,58.51
2023-05-14T08:28:28.694Z,58.63
2023-05-14T08:30:57.025Z,59.38
2023-05-14T08:33:26.670Z,59.65
2023-05-14T08:35:54.989Z,60.14
2023-05-14T08:38:23.169Z,59.65
2023-05-14T08:40:57.286Z,58.91
2023-05-14T08:43:28.199Z,54.33
2023-05-14T08:46:02.217Z,54.16
2023-05-14T08:48:34.470Z,54.45
2023-05-14T08:51:03.277Z,53.55
2023-05-14T08:53:32.108Z,51.70
2023-05-14T08:56:02.680Z,51.88
2023-05-14T08:58:31.106Z,48.91
2023-05-14T09:00:59.517Z,49.40
2023-05-14T09:03:27.999Z,48.85
2023-05-14T09:06:00.093Z,48.50
2023-05-14T09:08:28.599Z,48.05
2023-05-14T09:10:56.784Z,48.03
2023-05-14T09:13:26.915Z,50.12
2023-05-14T09:15:57.019Z,48.91
2023-05-14T09:18:26.196Z,48.97
2023-05-14T09:20:54.538Z,49.32
2023-05-14T09:23:26.706Z,49.04
2023-05-14T09:25:54.951Z,48.11
2023-05-14T09:28:24.404Z,48.37
2023-05-14T09:30:52.753Z,47.82
2023-05-14T09:33:28.172Z,46.95
2023-05-14T09:35:59.535Z,46.83
2023-05-14T09:38:33.135Z,46.98
2023-05-14T09:41:01.779Z,46.42
2023-05-14T09:43:29.993Z,44.92
2023-05-14T09:45:58.187Z,44.65
2023-05-14T09:48:26.519Z,44.05
2023-05-14T09:50:54.703Z,44.38
2023-05-14T09:53:22.874Z,44.90
2023-05-14T09:55:52.612Z,44.93
2023-05-14T09:58:20.941Z,44.71
2023-05-14T10:00:49.939Z,43.56
2023-05-14T10:03:21.171Z,44.25
2023-05-14T10:05:51.048Z,45.11
2023-05-14T10:08:25.426Z,44.47
2023-05-14T10:10:56.246Z,44.39
2023-05-14T10:13:31.335Z,44.28
2023-05-14T10:16:09.467Z,44.37
2023-05-14T10:18:48.561Z,44.77
2023-05-14T10:21:21.058Z,44.52
2023-05-14T10:23:50.357Z,45.27
2023-05-14T10:26:21.240Z,44.54
2023-05-14T10:28:51.405Z,44.11
2023-05-14T10:31:19.608Z,43.40
2023-05-14T10:33:50.166Z,44.57
2023-05-14T10:36:19.413Z,44.17
2023-05-14T10:38:47.979Z,44.73
2023-05-14T10:41:17.962Z,44.91
2023-05-14T10:43:48.405Z,43.88
2023-05-14T10:46:16.761Z,43.86
2023-05-14T10:48:45.318Z,42.99
2023-05-14T10:51:13.973Z,41.64
2023-05-14T10:53:43.714Z,42.84
2023-05-14T10:56:13.570Z,41.58
2023-05-14T10:58:44.108Z,40.78
2023-05-14T11:01:14.944Z,40.67
2023-05-14T11:03:45.902Z,41.71
2023-05-14T11:06:16.654Z,42.62
2023-05-14T11:08:46.454Z,42.68
2023-05-14T11:11:15.195Z,42.26
2023-05-14T11:13:43.883Z,42.57
2023-05-14T11:18:54.704Z,40.08
2023-05-14T11:21:23.005Z,40.48
2023-05-14T11:23:51.246Z,41.80
2023-05-14T11:26:21.488Z,41.13
2023-05-14T11:28:50.505Z,41.74
2023-05-14T11:31:20.198Z,42.36
2023-05-14T11:33:48.574Z,41.88
2023-05-14T11:36:16.790Z,43.02
2023-05-14T11:38:50.544Z,41.83
2023-05-14T11:41:20.978Z,40.50
2023-05-14T11:43:49.452Z,40.50
2023-05-14T11:46:19.049Z,39.44
2023-05-14T11:48:49.084Z,38.83
2023-05-14T11:51:17.308Z,39.25
2023-05-14T11:53:46.422Z,37.35
2023-05-14T11:56:14.657Z,39.14
2023-05-14T11:58:49.067Z,40.90
2023-05-14T12:01:17.543Z,40.57
2023-05-14T12:03:45.897Z,40.13
2023-05-14T12:06:15.553Z,40.06
2023-05-14T12:08:43.815Z,40.81
2023-05-14T12:11:11.938Z,40.54
2023-05-14T12:13:40.771Z,41.48
2023-05-14T12:16:09.021Z,40.48
2023-05-14T12:18:37.976Z,41.04
2023-05-14T12:21:08.362Z,40.51
2023-05-14T12:23:39.812Z,40.77
2023-05-14T12:26:09.152Z,39.92
2023-05-14T12:28:43.099Z,39.74
2023-05-14T12:31:11.505Z,40.92
2023-05-14T12:33:39.993Z,41.03
2023-05-14T12:38:41.618Z,41.35
2023-05-14T12:41:09.778Z,40.28
2023-05-14T12:43:37.924Z,41.30
2023-05-14T12:46:06.306Z,42.88
2023-05-14T12:48:34.489Z,40.87
2023-05-14T12:51:02.843Z,41.08
2023-05-14T12:53:31.052Z,41.45
2023-05-14T12:56:00.620Z,41.39
2023-05-14T12:58:28.860Z,42.27
2023-05-14T13:00:57.068Z,42.03
2023-05-14T13:03:26.354Z,41.99
2023-05-14T13:05:55.758Z,40.25
2023-05-14T13:08:25.150Z,41.02
2023-05-14T13:10:54.064Z,40.60
2023-05-14T13:13:23.817Z,40.95
2023-05-14T13:15:52.042Z,40.30
2023-05-14T13:18:20.338Z,41.06
2023-05-14T13:20:48.609Z,39.53
2023-05-14T13:23:16.782Z,39.38
2023-05-14T13:25:45.056Z,39.07
2023-05-14T13:28:15.024Z,40.13
2023-05-14T13:31:05.348Z,39.66
2023-05-14T13:33:34.332Z,40.38
2023-05-14T13:36:02.597Z,41.46
2023-05-14T13:38:30.876Z,39.74
2023-05-14T13:41:02.429Z,40.83
2023-05-14T13:43:31.408Z,40.74
2023-05-14T13:46:01.610Z,40.33
2023-05-14T13:48:30.958Z,40.13
2023-05-14T13:50:59.465Z,41.80
2023-05-14T13:53:27.888Z,41.18
2023-05-14T13:55:58.333Z,41.26
2023-05-14T13:58:26.969Z,40.91
2023-05-14T14:00:56.051Z,41.53
2023-05-14T14:03:25.546Z,42.12
2023-05-14T14:05:54.173Z,43.02
2023-05-14T14:08:24.369Z,43.15
2023-05-14T14:10:55.138Z,42.56
2023-05-14T14:13:24.465Z,42.33
2023-05-14T14:15:52.942Z,42.15
2023-05-14T14:18:21.202Z,42.83
2023-05-14T14:20:50.795Z,42.91
2023-05-14T14:23:19.549Z,41.81
2023-05-14T14:25:47.909Z,42.44
2023-05-14T14:28:16.089Z,42.18
2023-05-14T14:30:44.713Z,42.17
2023-05-14T14:33:12.946Z,42.33
2023-05-14T14:35:41.168Z,42.37
2023-05-14T14:38:10.667Z,42.28
2023-05-14T14:40:38.889Z,42.49
2023-05-14T14:43:07.182Z,43.18
2023-05-14T14:45:35.418Z,43.00
2023-05-14T14:48:27.149Z,42.00
2023-05-14T14:50:56.359Z,42.46
2023-05-14T14:53:25.916Z,43.03
2023-05-14T14:55:54.365Z,42.99
2023-05-14T14:58:22.972Z,42.20
2023-05-14T15:00:53.455Z,42.27
2023-05-14T15:03:22.299Z,42.72
2023-05-14T15:05:51.180Z,42.71
2023-05-14T15:08:19.472Z,43.29
2023-05-14T15:10:48.978Z,43.36
2023-05-14T15:13:17.561Z,42.82
2023-05-14T15:15:45.884Z,43.22
2023-05-14T15:18:14.111Z,42.82
2023-05-14T15:20:42.356Z,42.19
2023-05-14T15:23:11.532Z,43.38
2023-05-14T15:25:39.810Z,42.93
2023-05-14T15:28:09.308Z,42.46
2023-05-14T15:30:37.762Z,42.51
2023-05-14T15:33:08.692Z,42.12
2023-05-14T15:35:37.451Z,41.92
2023-05-14T15:38:05.608Z,41.41
2023-05-14T15:40:35.020Z,41.13
2023-05-14T15:43:03.299Z,39.52
2023-05-14T15:45:32.940Z,38.60
2023-05-14T15:48:01.217Z,37.43
2023-05-14T15:50:29.505Z,36.52
2023-05-14T15:52:57.766Z,36.05
2023-05-14T15:55:25.970Z,36.31
2023-05-14T15:57:54.140Z,37.96
2023-05-14T16:00:22.828Z,38.56
2023-05-14T16:02:52.984Z,38.61
2023-05-14T16:05:21.195Z,37.96
2023-05-14T16:07:49.410Z,37.62
2023-05-14T16:10:17.946Z,37.71
2023-05-14T16:12:46.582Z,37.81
2023-05-14T16:15:14.759Z,36.03
2023-05-14T16:17:43.200Z,34.31
2023-05-14T16:20:13.660Z,35.68
2023-05-14T16:22:42.571Z,36.91
2023-05-14T16:25:10.772Z,36.96
2023-05-14T16:27:39.043Z,34.53
2023-05-14T16:30:08.644Z,36.11
2023-05-14T16:32:36.880Z,36.58
2023-05-14T16:35:05.530Z,36.99
2023-05-14T16:37:35.443Z,37.42
2023-05-14T16:40:03.788Z,38.71
2023-05-14T16:42:31.949Z,39.02
2023-05-14T16:45:00.401Z,40.39
2023-05-14T16:47:28.585Z,41.27
2023-05-14T16:49:56.737Z,41.95
2023-05-14T16:52:24.953Z,42.61
2023-05-14T16:54:54.509Z,43.33
2023-05-14T16:57:22.671Z,43.77
2023-05-14T16:59:50.996Z,44.14
2023-05-14T17:02:19.294Z,43.93
2023-05-14T17:04:47.544Z,44.77
2023-05-14T17:07:15.722Z,45.07
2023-05-14T17:09:43.862Z,44.96
2023-05-14T17:12:14.038Z,45.28
2023-05-14T17:14:42.218Z,44.78
2023-05-14T17:17:10.379Z,45.17
2023-05-14T17:19:38.506Z,45.41
2023-05-14T17:22:07.275Z,47.59
2023-05-14T17:24:36.467Z,46.29
2023-05-14T17:27:05.166Z,46.95
2023-05-14T17:29:34.638Z,46.72
2023-05-14T17:32:03.595Z,46.21
2023-05-14T17:34:31.866Z,47.17
2023-05-14T17:37:00.827Z,47.63
2023-05-14T17:39:29.090Z,48.71
2023-05-14T17:41:57.267Z,48.36
2023-05-14T17:44:25.464Z,49.11
2023-05-14T17:46:55.111Z,49.81
2023-05-14T17:49:23.268Z,49.18
2023-05-14T17:51:51.455Z,50.51
2023-05-14T17:54:19.654Z,50.61
2023-05-14T17:56:50.808Z,52.17
2023-05-14T17:59:19.141Z,50.33
2023-05-14T18:01:47.357Z,51.38
2023-05-14T18:04:16.943Z,50.87
2023-05-14T18:06:45.671Z,50.15
2023-05-14T18:09:13.831Z,50.02
2023-05-14T18:11:42.403Z,50.01
2023-05-14T18:14:10.927Z,50.46
2023-05-14T18:16:39.114Z,52.06
2023-05-14T18:19:07.383Z,52.74
2023-05-14T18:21:36.932Z,52.50
2023-05-14T18:24:05.698Z,53.00
2023-05-14T18:26:34.987Z,53.31
2023-05-14T18:29:03.175Z,55.18
2023-05-14T18:31:31.419Z,56.46
2023-05-14T18:33:59.618Z,56.60
2023-05-14T18:36:28.198Z,56.48
2023-05-14T18:38:57.815Z,56.70
2023-05-14T18:41:26.092Z,57.21
2023-05-14T18:43:54.322Z,57.26
2023-05-14T18:46:22.593Z,57.67
2023-05-14T18:48:51.264Z,58.15
2023-05-14T18:51:19.470Z,58.28
2023-05-14T18:53:47.740Z,58.92
2023-05-14T18:56:17.210Z,60.04
2023-05-14T18:58:45.394Z,60.66
2023-05-14T19:01:13.683Z,62.59
2023-05-14T19:03:42.294Z,63.46
2023-05-14T19:06:10.682Z,63.07
2023-05-14T19:08:38.859Z,63.50
2023-05-14T19:11:07.052Z,63.47
2023-05-14T19:13:36.648Z,63.27
2023-05-14T19:16:05.273Z,62.84
2023-05-14T19:18:33.726Z,62.38
2023-05-14T19:21:01.913Z,62.75
2023-05-14T19:23:31.063Z,64.44
2023-05-14T19:25:59.337Z,64.60
2023-05-14T19:28:27.645Z,64.21
2023-05-14T19:30:57.341Z,64.70
2023-05-14T19:33:26.221Z,66.13
2023-05-14T19:35:54.396Z,66.03
2023-05-14T19:38:22.585Z,66.09
2023-05-14T19:40:53.291Z,66.83
2023-05-14T19:43:21.521Z,67.38
2023-05-14T19:45:50.589Z,66.79
2023-05-14T19:48:20.241Z,67.54
2023-05-14T19:50:48.504Z,67.63
2023-05-14T19:53:16.674Z,67.79
2023-05-14T19:55:44.903Z,67.75
2023-05-14T19:58:13.082Z,69.25
2023-05-14T20:00:42.041Z,70.25
2023-05-14T20:03:10.774Z,70.78
2023-05-14T20:05:40.853Z,71.17
2023-05-14T20:08:09.254Z,72.17
2023-05-14T20:10:37.438Z,72.48
2023-05-14T20:13:06.281Z,72.84
2023-05-14T20:15:34.789Z,73.37
2023-05-14T20:18:06.151Z,73.64
2023-05-14T20:20:34.438Z,74.61
2023-05-14T20:23:03.965Z,74.85
2023-05-14T20:25:33.504Z,75.21
2023-05-14T20:28:01.906Z,75.47
2023-05-14T20:30:30.168Z,75.96
2023-05-14T20:32:58.663Z,76.81
2023-05-14T20:35:27.385Z,77.11
2023-05-14T20:37:56.269Z,77.37
2023-05-14T20:40:25.917Z,78.04
2023-05-14T20:42:54.080Z,79.08
2023-05-14T20:45:22.291Z,79.58
2023-05-14T20:47:50.528Z,79.25
2023-05-14T20:50:18.806Z,79.42
2023-05-14T20:52:47.077Z,79.70
2023-05-14T20:55:15.450Z,80.20
2023-05-14T20:57:44.978Z,80.52
2023-05-14T21:00:14.120Z,80.67
2023-05-14T21:02:42.575Z,80.71
2023-05-14T21:05:10.820Z,81.19
2023-05-14T21:07:39.368Z,81.55
2023-05-14T21:10:09.209Z,81.91
2023-05-14T21:12:37.482Z,81.86
2023-05-14T21:15:08.223Z,82.36
2023-05-14T21:17:36.414Z,82.45
2023-05-14T21:20:05.287Z,82.82
2023-05-14T21:22:33.492Z,83.23
2023-05-14T21:25:01.658Z,83.52
2023-05-14T21:27:29.902Z,83.71
2023-05-14T21:29:58.122Z,84.12
2023-05-14T21:32:27.695Z,84.58
2023-05-14T21:34:56.168Z,85.16
2023-05-14T21:37:24.482Z,85.56
2023-05-14T21:39:52.756Z,86.49
2023-05-14T21:42:21.372Z,86.53
2023-05-14T21:44:49.531Z,86.76
2023-05-14T21:47:17.848Z,87.36
2023-05-14T21:49:47.402Z,87.58
2023-05-14T21:52:15.644Z,87.48
2023-05-14T21:54:43.870Z,87.57
2023-05-14T21:57:12.040Z,88.28
2023-05-14T21:59:40.310Z,88.36
2023-05-14T22:02:08.741Z,88.61
2023-05-14T22:04:36.965Z,88.66
2023-05-14T22:07:06.569Z,88.72
2023-05-14T22:09:34.825Z,88.97
2023-05-14T22:12:02.992Z,89.41
2023-05-14T22:14:31.151Z,89.56
2023-05-14T22:16:59.375Z,89.83
2023-05-14T22:19:27.889Z,90.06
2023-05-14T22:21:56.392Z,90.29
2023-05-14T22:24:26.163Z,90.43
2023-05-14T22:26:54.664Z,90.70
2023-05-14T22:29:22.979Z,91.05
2023-05-14T22:31:51.256Z,91.00
2023-05-14T22:34:20.159Z,91.23
2023-05-14T22:36:48.361Z,91.40
2023-05-14T22:39:16.507Z,91.80
2023-05-14T22:41:46.101Z,92.27
2023-05-14T22:44:14.353Z,92.28
2023-05-14T22:46:42.750Z,92.20
2023-05-14T22:49:10.928Z,92.16
2023-05-14T22:51:39.357Z,92.24
2023-05-14T22:54:07.961Z,92.59
2023-05-14T22:56:36.645Z,92.75
2023-05-14T22:59:06.182Z,93.07
2023-05-14T23:01:34.534Z,93.32
2023-05-14T23:04:02.782Z,93.38
2023-05-14T23:06:31.362Z,93.55
2023-05-14T23:08:59.620Z,93.74
2023-05-14T23:11:28.126Z,94.05
2023-05-14T23:13:56.278Z,94.41
2023-05-14T23:16:25.957Z,94.66
2023-05-14T23:18:54.496Z,94.78
2023-05-14T23:21:23.569Z,95.29
2023-05-14T23:23:52.005Z,96.31
2023-05-14T23:26:21.477Z,96.46
2023-05-14T23:28:51.100Z,95.84
2023-05-14T23:31:19.311Z,95.37
2023-05-14T23:33:48.835Z,95.63
2023-05-14T23:36:17.034Z,95.60
2023-05-14T23:38:45.295Z,95.36
2023-05-14T23:41:13.471Z,96.27
2023-05-14T23:43:41.601Z,96.80
2023-05-14T23:46:10.158Z,97.02
2023-05-14T23:48:38.458Z,96.00
2023-05-14T23:51:08.058Z,95.75
2023-05-14T23:53:36.185Z,95.81
2023-05-14T23:56:04.465Z,96.62
2023-05-14T23:58:33.685Z,96.91
